This is the latest recevied weather packets stored in our database for station/object OK1FET-4. If no packets are shown the sender has not sent any weather packets the latest 1 day(s).
| Time | Temp. | Humidity | Pressure | Rain* | Wind** | Luminosity | Snow |
|---|---|---|---|---|---|---|---|
| 1778014317 | 13.33° C | 91% | 1006.7 hPa | - | 6.26 m/s, 261° | - | - |
| 1778014317 | 13.33° C | 91% | 1006.7 hPa | - | 6.26 m/s, 261° | - | - |
| 1778014317 | 13.33° C | 91% | 1006.7 hPa | - | 6.26 m/s, 261° | - | - |
| 1778014016 | 13.33° C | 91% | 1006.5 hPa | - | 7.6 m/s, 275° | - | - |
| 1778014016 | 13.33° C | 91% | 1006.5 hPa | - | 7.6 m/s, 275° | - | - |
| 1778014016 | 13.33° C | 91% | 1006.5 hPa | - | 7.6 m/s, 275° | - | - |
| 1778013716 | 13.33° C | 90% | 1006.2 hPa | - | 8.49 m/s, 279° | - | - |
| 1778013716 | 13.33° C | 90% | 1006.2 hPa | - | 8.49 m/s, 279° | - | - |
| 1778013716 | 13.33° C | 90% | 1006.2 hPa | - | 8.49 m/s, 279° | - | - |
| 1778013416 | 13.89° C | 89% | 1006.1 hPa | - | 8.49 m/s, 270° | - | - |
| 1778013416 | 13.89° C | 89% | 1006.1 hPa | - | 8.49 m/s, 270° | - | - |
| 1778013415 | 13.89° C | 89% | 1006.1 hPa | - | 8.49 m/s, 270° | - | - |
| 1778013115 | 14.44° C | 84% | 1005.9 hPa | - | 8.94 m/s, 277° | - | - |
| 1778013115 | 14.44° C | 84% | 1005.9 hPa | - | 8.94 m/s, 277° | - | - |
| 1778013115 | 14.44° C | 84% | 1005.9 hPa | - | 8.94 m/s, 277° | - | - |
| 1778012815 | 15° C | 80% | 1005.7 hPa | - | 8.49 m/s, 279° | - | - |
| 1778012814 | 15° C | 80% | 1005.7 hPa | - | 8.49 m/s, 279° | - | - |
| 1778012814 | 15° C | 80% | 1005.7 hPa | - | 8.49 m/s, 279° | - | - |
| 1778012514 | 16.11° C | 72% | 1005.8 hPa | - | 6.71 m/s, 289° | - | - |
| 1778012514 | 16.11° C | 72% | 1005.8 hPa | - | 6.71 m/s, 289° | - | - |
| 1778012514 | 16.11° C | 72% | 1005.8 hPa | - | 6.71 m/s, 289° | - | - |
| 1778012213 | 17.22° C | 62% | 1005.8 hPa | - | 3.58 m/s, 273° | - | - |
| 1778012213 | 17.22° C | 62% | 1005.8 hPa | - | 3.58 m/s, 273° | - | - |
| 1778012213 | 17.22° C | 62% | 1005.8 hPa | - | 3.58 m/s, 273° | - | - |
| 1778011912 | 17.22° C | 59% | 1005.4 hPa | - | 2.68 m/s, 310° | - | - |
* Rain since midnight (hover to see other rain measurements)
** Current wind speed in m/s (hover to see current wind gust speed)